Time;durP1;ratioP1;P1;durP2;ratioP2;P2;SDS_P1;SDS_P2;PMS_P1;PMS_P2;Temp;Humidity;BMP_temperature;BMP_pressure;BME280_temperature;BME280_humidity;BME280_pressure;Samples;Min_cycle;Max_cycle;Signal;HPM_P1;HPM_P2
2024/02/24 00:01:24;;;;;;;12.63;3.80;;;;;;;3.33;100.00;99285.06;5060581;28;20029;-72
2024/02/24 00:03:49;;;;;;;11.38;3.58;;;;;;;3.34;100.00;99278.13;5062681;28;20099;-86
2024/02/24 00:06:14;;;;;;;12.02;3.75;;;;;;;3.37;100.00;99276.41;5064452;28;20102;-82
2024/02/24 00:08:41;;;;;;;11.35;3.88;;;;;;;3.35;100.00;99280.75;5065410;28;20025;-82
2024/02/24 00:11:07;;;;;;;11.60;3.97;;;;;;;3.34;100.00;99285.97;5065422;28;20040;-81
2024/02/24 00:13:32;;;;;;;11.32;3.90;;;;;;;3.29;100.00;99280.69;5064550;28;20021;-80
2024/02/24 00:15:57;;;;;;;11.57;3.85;;;;;;;3.27;100.00;99278.06;5066353;28;20032;-85
2024/02/24 00:18:23;;;;;;;14.27;4.10;;;;;;;3.24;100.00;99283.25;5064513;28;20025;-84
2024/02/24 00:20:48;;;;;;;12.23;4.20;;;;;;;3.19;100.00;99281.47;5066263;28;20025;-83
2024/02/24 00:23:14;;;;;;;13.20;4.40;;;;;;;3.22;100.00;99284.09;5064319;28;20067;-86
2024/02/24 00:25:39;;;;;;;13.77;4.20;;;;;;;3.23;100.00;99280.63;5065460;28;20029;-79
2024/02/24 00:28:05;;;;;;;12.50;4.28;;;;;;;3.24;100.00;99282.41;5066738;28;20453;-82
2024/02/24 00:30:30;;;;;;;14.77;4.32;;;;;;;3.22;100.00;99287.59;5063919;28;20533;-86
2024/02/24 00:32:55;;;;;;;14.32;4.50;;;;;;;3.24;100.00;99288.47;5066043;28;20111;-87
2024/02/24 00:35:22;;;;;;;14.50;4.50;;;;;;;3.19;100.00;99282.34;5064503;28;20074;-78
2024/02/24 00:37:47;;;;;;;13.00;4.28;;;;;;;3.23;100.00;99291.09;5065874;28;20408;-80
2024/02/24 00:40:13;;;;;;;13.57;4.35;;;;;;;3.19;100.00;99282.34;5064455;28;20036;-72
2024/02/24 00:42:38;;;;;;;13.40;4.10;;;;;;;3.20;100.00;99286.69;5063266;28;20486;-72
2024/02/24 00:45:04;;;;;;;13.85;4.30;;;;;;;3.21;100.00;99282.38;5066560;28;20542;-72
2024/02/24 00:47:29;;;;;;;14.57;4.00;;;;;;;3.20;100.00;99285.84;5063927;28;20041;-72
2024/02/24 00:49:55;;;;;;;12.52;4.15;;;;;;;3.19;100.00;99292.81;5066780;28;20029;-72
2024/02/24 00:52:20;;;;;;;13.07;4.10;;;;;;;3.19;100.00;99278.84;5064263;28;20395;-72
2024/02/24 00:54:45;;;;;;;12.38;4.10;;;;;;;3.21;100.00;99284.97;5064098;28;20391;-72
2024/02/24 00:57:10;;;;;;;12.38;4.10;;;;;;;3.23;100.00;99281.53;5065368;28;20111;-72
2024/02/24 00:59:36;;;;;;;13.27;4.20;;;;;;;3.23;100.00;99278.03;5063961;28;20060;-72
2024/02/24 01:02:01;;;;;;;10.52;4.03;;;;;;;3.20;100.00;99286.69;5066418;28;20044;-72
2024/02/24 01:04:27;;;;;;;11.82;3.72;;;;;;;3.20;100.00;99291.91;5063182;28;20040;-72
2024/02/24 01:06:52;;;;;;;12.70;4.07;;;;;;;3.18;100.00;99287.56;5066041;28;20111;-72
2024/02/24 01:09:17;;;;;;;14.07;3.90;;;;;;;3.20;100.00;99293.66;5064213;28;20144;-72
2024/02/24 01:11:43;;;;;;;11.45;3.80;;;;;;;3.18;100.00;99285.81;5064612;28;20025;-72
2024/02/24 01:14:08;;;;;;;12.52;3.85;;;;;;;3.20;100.00;99293.66;5065508;28;20115;-72
2024/02/24 01:16:34;;;;;;;11.68;3.80;;;;;;;3.21;100.00;99291.06;5062181;28;20061;-72
2024/02/24 01:18:59;;;;;;;12.20;3.60;;;;;;;3.23;100.00;99297.22;5066229;28;20486;-72
2024/02/24 01:21:24;;;;;;;12.95;3.70;;;;;;;3.25;100.00;99292.00;5063272;28;20029;-72
2024/02/24 01:23:50;;;;;;;11.40;3.70;;;;;;;3.25;100.00;99292.00;5064031;28;20039;-73
2024/02/24 01:26:15;;;;;;;12.07;3.42;;;;;;;3.25;100.00;99295.47;5064476;28;20379;-72
2024/02/24 01:28:41;;;;;;;12.15;3.63;;;;;;;3.26;100.00;99292.00;5063887;28;20078;-72
2024/02/24 01:31:07;;;;;;;12.27;3.63;;;;;;;3.28;100.00;99294.63;5064222;28;20433;-72
2024/02/24 01:33:32;;;;;;;11.68;3.60;;;;;;;3.28;100.00;99297.25;5061698;28;20093;-72
2024/02/24 01:35:57;;;;;;;11.73;3.60;;;;;;;3.28;100.00;99290.25;5066082;28;20505;-73
2024/02/24 01:38:23;;;;;;;10.70;3.50;;;;;;;3.29;100.00;99291.13;5061925;28;20025;-73
2024/02/24 01:40:48;;;;;;;10.07;3.50;;;;;;;3.29;100.00;99283.28;5064832;28;20067;-72
2024/02/24 01:43:24;;;;;;;12.27;3.70;;;;;;;3.32;100.00;99285.97;5063042;28;20060;-72
2024/02/24 01:45:51;;;;;;;10.48;3.40;;;;;;;3.26;100.00;99289.38;5063468;28;20036;-72
2024/02/24 01:48:17;;;;;;;9.20;3.30;;;;;;;3.26;100.00;99288.50;5063657;28;20468;-72
2024/02/24 01:50:45;;;;;;;8.75;3.17;;;;;;;3.31;100.00;99295.50;5064006;28;20068;-72
2024/02/24 01:53:11;;;;;;;9.00;3.30;;;;;;;3.33;100.00;99295.53;5064421;28;20055;-72
2024/02/24 01:55:36;;;;;;;10.30;3.10;;;;;;;3.34;100.00;99293.81;5062773;28;20106;-72
2024/02/24 01:58:03;;;;;;;9.02;3.20;;;;;;;3.35;100.00;99291.22;5065640;28;20036;-72
2024/02/24 02:00:28;;;;;;;11.65;3.33;;;;;;;3.33;100.00;99284.22;5058126;28;20369;-72
2024/02/24 02:02:54;;;;;;;10.82;3.05;;;;;;;3.36;100.00;99294.69;5065187;28;20059;-72
2024/02/24 02:05:19;;;;;;;8.45;3.08;;;;;;;3.35;100.00;99293.81;5061768;28;20036;-73
2024/02/24 02:07:45;;;;;;;8.93;3.00;;;;;;;3.37;100.00;99297.31;5063716;28;20110;-72
2024/02/24 02:10:10;;;;;;;8.85;3.00;;;;;;;3.39;100.00;99302.53;5064341;28;20360;-72
2024/02/24 02:12:36;;;;;;;9.93;2.90;;;;;;;3.40;100.00;99302.56;5062406;28;20036;-72
2024/02/24 02:15:04;;;;;;;10.15;2.97;;;;;;;3.45;100.00;99302.59;5065187;28;20481;-72
2024/02/24 02:17:30;;;;;;;7.50;2.70;;;;;;;3.46;100.00;99307.84;5056893;28;20032;-85
2024/02/24 02:20:03;;;;;;;7.80;2.75;;;;;;;3.49;100.00;99315.72;5064878;28;20029;-87
2024/02/24 02:22:30;;;;;;;9.60;2.92;;;;;;;3.53;100.00;99315.75;5057906;28;20032;-84
2024/02/24 02:24:55;;;;;;;7.55;2.70;;;;;;;3.58;100.00;99320.16;5065359;28;20025;-79
2024/02/24 02:27:20;;;;;;;7.22;2.80;;;;;;;3.62;100.00;99311.44;5064053;28;20471;-82
2024/02/24 02:29:46;;;;;;;7.95;2.80;;;;;;;3.62;100.00;99307.97;5064085;28;20061;-82
2024/02/24 02:32:11;;;;;;;6.60;2.80;;;;;;;3.67;100.00;99315.00;5064344;28;20179;-83
2024/02/24 02:34:36;;;;;;;8.32;2.83;;;;;;;3.71;100.00;99313.25;5062275;28;20029;-81
2024/02/24 02:37:02;;;;;;;7.43;2.80;;;;;;;3.70;100.00;99310.63;5064963;28;20039;-86
2024/02/24 02:39:28;;;;;;;7.43;2.70;;;;;;;3.71;100.00;99318.50;5057638;28;20060;-86
2024/02/24 02:41:53;;;;;;;7.43;2.90;;;;;;;3.70;100.00;99319.38;5064137;28;20029;-84
2024/02/24 02:44:18;;;;;;;8.82;2.90;;;;;;;3.72;100.00;99322.88;5062454;28;20142;-86
2024/02/24 02:46:48;;;;;;;7.65;2.70;;;;;;;3.71;100.00;99330.69;5062931;28;20052;-81
2024/02/24 02:49:14;;;;;;;6.07;2.90;;;;;;;3.71;100.00;99323.72;5063254;28;20036;-75
2024/02/24 02:51:39;;;;;;;6.07;2.72;;;;;;;3.69;100.00;99328.06;5062049;28;20025;-72
2024/02/24 02:54:05;;;;;;;9.32;2.90;;;;;;;3.69;100.00;99327.19;5064379;28;20039;-73
2024/02/24 02:56:30;;;;;;;7.05;2.85;;;;;;;3.71;100.00;99323.72;5061097;28;20033;-82
2024/02/24 02:58:55;;;;;;;9.30;2.92;;;;;;;3.71;100.00;99323.72;5064037;28;20021;-85
2024/02/24 03:01:21;;;;;;;8.55;2.88;;;;;;;3.70;100.00;99323.69;5061971;28;20024;-79
2024/02/24 03:03:46;;;;;;;5.57;2.80;;;;;;;3.70;100.00;99326.31;5061541;28;20547;-82
2024/02/24 03:06:13;;;;;;;7.82;2.88;;;;;;;3.67;100.00;99332.41;5063167;28;20375;-75
2024/02/24 03:08:38;;;;;;;6.72;2.85;;;;;;;3.64;100.00;99320.19;5061963;28;20070;-82
2024/02/24 03:11:03;;;;;;;8.95;2.83;;;;;;;3.61;100.00;99317.56;5064173;28;20111;-83
2024/02/24 03:13:29;;;;;;;7.40;3.08;;;;;;;3.62;100.00;99323.66;5061141;28;20039;-82
2024/02/24 03:15:55;;;;;;;8.77;2.88;;;;;;;3.61;100.00;99330.63;5063659;28;20028;-81
2024/02/24 03:18:20;;;;;;;8.95;2.90;;;;;;;3.60;100.00;99317.56;5061784;28;20016;-83
2024/02/24 03:20:46;;;;;;;8.00;3.05;;;;;;;3.60;100.00;99323.63;5062738;28;20025;-84
2024/02/24 03:23:11;;;;;;;7.32;3.00;;;;;;;3.58;100.00;99324.47;5061884;28;20081;-83
2024/02/24 03:25:36;;;;;;;8.57;3.10;;;;;;;3.60;100.00;99323.63;5061203;28;20047;-84
2024/02/24 03:28:03;;;;;;;7.35;2.97;;;;;;;3.58;100.00;99324.47;5064388;28;20033;-81
2024/02/24 03:30:29;;;;;;;6.53;2.95;;;;;;;3.57;100.00;99333.19;5055345;28;20024;-74
2024/02/24 03:32:55;;;;;;;6.35;2.88;;;;;;;3.56;100.00;99331.44;5063566;28;20082;-77
2024/02/24 03:35:20;;;;;;;9.77;3.13;;;;;;;3.51;100.00;99334.03;5061905;28;20037;-74
2024/02/24 03:37:45;;;;;;;5.78;2.92;;;;;;;3.52;100.00;99335.75;5061222;28;20448;-75
2024/02/24 03:40:12;;;;;;;8.82;3.00;;;;;;;3.51;100.00;99330.53;5063768;28;20044;-84
2024/02/24 03:42:37;;;;;;;9.00;3.30;;;;;;;3.49;100.00;99325.28;5065462;28;20480;-77
2024/02/24 03:45:03;;;;;;;10.40;3.30;;;;;;;3.49;100.00;99331.41;5067977;28;20033;-84
2024/02/24 03:47:29;;;;;;;7.13;3.20;;;;;;;3.48;100.00;99328.75;5060457;28;20044;-81
2024/02/24 03:49:54;;;;;;;10.05;3.40;;;;;;;3.47;100.00;99322.66;5067662;28;20079;-84
2024/02/24 03:52:19;;;;;;;6.82;3.03;;;;;;;3.47;100.00;99330.50;5065652;28;20468;-84
2024/02/24 03:54:45;;;;;;;8.77;3.45;;;;;;;3.45;100.00;99327.00;5064996;28;20028;-83
2024/02/24 03:57:10;;;;;;;10.95;3.50;;;;;;;3.47;100.00;99330.50;5066996;28;20032;-84
2024/02/24 03:59:36;;;;;;;8.43;3.35;;;;;;;3.47;100.00;99327.88;5064709;28;20025;-72
2024/02/24 04:02:01;;;;;;;10.75;3.65;;;;;;;3.49;100.00;99330.50;5067984;28;20024;-73
2024/02/24 04:04:27;;;;;;;10.27;3.47;;;;;;;3.49;100.00;99323.56;5066221;28;20468;-72
2024/02/24 04:06:52;;;;;;;9.60;3.83;;;;;;;3.48;100.00;99337.47;5065432;28;20037;-72
2024/02/24 04:09:17;;;;;;;13.02;3.80;;;;;;;3.46;100.00;99333.97;5064693;28;20067;-73
2024/02/24 04:11:43;;;;;;;9.48;3.53;;;;;;;3.47;100.00;99340.09;5065305;28;20108;-72
2024/02/24 04:14:08;;;;;;;9.93;3.55;;;;;;;3.45;100.00;99340.06;5066986;28;20115;-72
2024/02/24 04:16:33;;;;;;;9.60;3.58;;;;;;;3.46;100.00;99339.19;5064288;28;20476;-72
2024/02/24 04:19:00;;;;;;;9.32;3.50;;;;;;;3.48;100.00;99350.53;5067381;28;20029;-72
2024/02/24 04:21:25;;;;;;;8.85;3.40;;;;;;;3.48;100.00;99344.41;5064331;28;20116;-72
2024/02/24 04:23:51;;;;;;;10.80;3.65;;;;;;;3.51;100.00;99346.19;5066453;28;20516;-72
2024/02/24 04:26:16;;;;;;;8.35;3.45;;;;;;;3.53;100.00;99360.16;5064287;28;20048;-72
2024/02/24 04:28:41;;;;;;;9.75;3.60;;;;;;;3.58;100.00;99359.34;5064828;28;20025;-73
2024/02/24 04:31:07;;;;;;;11.07;3.78;;;;;;;3.62;100.00;99353.25;5066911;28;20379;-73
2024/02/24 04:33:32;;;;;;;9.95;3.80;;;;;;;3.68;100.00;99355.06;5063630;28;20043;-72
2024/02/24 04:35:58;;;;;;;9.68;3.28;;;;;;;3.75;100.00;99364.72;5067086;28;20078;-74
2024/02/24 04:38:23;;;;;;;9.55;3.70;;;;;;;3.81;100.00;99367.38;5064521;28;20029;-73
2024/02/24 04:40:48;;;;;;;9.93;3.60;;;;;;;3.87;100.00;99369.16;5065549;28;20029;-72
2024/02/24 04:43:15;;;;;;;9.80;3.50;;;;;;;3.89;100.00;99374.41;5065905;28;20036;-72
2024/02/24 04:45:40;;;;;;;11.18;3.70;;;;;;;3.94;100.00;99373.56;5064302;28;20096;-71
2024/02/24 04:48:06;;;;;;;9.95;3.60;;;;;;;3.95;100.00;99380.56;5065464;28;20111;-72
2024/02/24 04:50:31;;;;;;;10.93;3.60;;;;;;;3.95;100.00;99383.19;5063468;28;20357;-73
2024/02/24 04:52:57;;;;;;;9.38;3.50;;;;;;;3.95;100.00;99377.94;5065005;28;20043;-72
2024/02/24 04:55:22;;;;;;;7.93;3.40;;;;;;;3.97;100.00;99384.06;5064458;28;20033;-72
2024/02/24 04:57:47;;;;;;;11.00;3.70;;;;;;;3.97;100.00;99380.56;5065443;28;20180;-72
2024/02/24 05:00:13;;;;;;;10.13;3.60;;;;;;;3.95;100.00;99387.53;5065347;28;20111;-73
2024/02/24 05:02:38;;;;;;;9.20;3.55;;;;;;;3.98;100.00;99385.81;5063736;28;20111;-73
2024/02/24 05:05:04;;;;;;;11.10;3.70;;;;;;;3.99;100.00;99389.28;5066794;28;20383;-71
2024/02/24 05:07:29;;;;;;;10.88;3.60;;;;;;;4.01;100.00;99390.19;5059172;28;20043;-73
2024/02/24 05:09:56;;;;;;;9.90;3.80;;;;;;;4.00;100.00;99385.81;5066027;28;20031;-73
2024/02/24 05:12:21;;;;;;;11.57;3.63;;;;;;;4.00;100.00;99397.19;5064345;28;20025;-72
2024/02/24 05:14:48;;;;;;;12.10;3.90;;;;;;;4.00;100.00;99393.66;5063505;28;20021;-72
2024/02/24 05:17:14;;;;;;;9.52;3.53;;;;;;;4.01;100.00;99392.81;5065330;28;20037;-73
2024/02/24 05:19:40;;;;;;;12.65;3.90;;;;;;;3.99;100.00;99403.25;5063828;28;20028;-73
2024/02/24 05:22:06;;;;;;;11.90;3.80;;;;;;;3.95;100.00;99396.25;5066094;28;20495;-72
2024/02/24 05:24:31;;;;;;;12.85;4.00;;;;;;;3.95;100.00;99403.22;5063069;28;20033;-73
2024/02/24 05:26:57;;;;;;;11.07;3.75;;;;;;;3.99;100.00;99399.75;5065784;28;20036;-72
2024/02/24 05:29:22;;;;;;;10.48;3.70;;;;;;;3.97;100.00;99396.25;5063788;28;20041;-83
2024/02/24 05:31:48;;;;;;;9.65;3.75;;;;;;;3.96;100.00;99399.72;5064880;28;20020;-80
2024/02/24 05:34:13;;;;;;;12.18;4.00;;;;;;;3.89;100.00;99405.75;5064936;28;20028;-84
2024/02/24 05:36:38;;;;;;;13.95;4.00;;;;;;;3.82;100.00;99399.63;5062933;28;20037;-84
2024/02/24 05:39:04;;;;;;;9.95;3.70;;;;;;;3.77;100.00;99404.81;5065002;28;20064;-81
2024/02/24 05:41:30;;;;;;;11.18;3.83;;;;;;;3.75;100.00;99408.28;5062511;28;20028;-78
2024/02/24 05:43:55;;;;;;;12.93;3.95;;;;;;;3.71;100.00;99409.97;5063916;28;20039;-85
2024/02/24 05:46:20;;;;;;;13.27;3.90;;;;;;;3.69;100.00;99410.84;5063837;28;20479;-84
2024/02/24 05:48:46;;;;;;;9.80;3.80;;;;;;;3.69;100.00;99409.09;5064122;28;20029;-84
2024/02/24 05:51:12;;;;;;;14.07;4.30;;;;;;;3.72;100.00;99419.56;5065017;28;20086;-84
2024/02/24 05:53:38;;;;;;;14.60;4.20;;;;;;;3.74;100.00;99417.88;5062885;28;20532;-84
2024/02/24 05:56:04;;;;;;;11.13;3.92;;;;;;;3.81;100.00;99430.09;5065832;28;20036;-76
2024/02/24 05:58:30;;;;;;;12.23;4.00;;;;;;;3.84;100.00;99430.16;5062394;28;20025;-77
2024/02/24 06:00:56;;;;;;;10.77;3.90;;;;;;;3.90;100.00;99428.44;5065178;28;20081;-76
2024/02/24 06:03:22;;;;;;;13.27;4.35;;;;;;;3.92;100.00;99432.84;5062420;28;20057;-81
2024/02/24 06:05:48;;;;;;;12.55;4.45;;;;;;;3.94;100.00;99440.69;5064150;28;20033;-83
2024/02/24 06:08:14;;;;;;;12.00;4.20;;;;;;;3.94;100.00;99433.72;5063963;28;20105;-81
2024/02/24 06:10:39;;;;;;;13.30;4.30;;;;;;;3.94;100.00;99435.47;5062566;28;20090;-73
2024/02/24 06:13:05;;;;;;;13.95;4.38;;;;;;;3.95;100.00;99432.00;5065526;28;20495;-72
2024/02/24 06:15:31;;;;;;;12.93;4.20;;;;;;;3.93;100.00;99431.09;5057741;28;20033;-72
2024/02/24 06:17:56;;;;;;;11.18;4.07;;;;;;;3.93;100.00;99438.94;5064687;28;20364;-72
2024/02/24 06:20:21;;;;;;;13.63;4.40;;;;;;;3.91;100.00;99435.44;5063063;28;20029;-72
2024/02/24 06:22:48;;;;;;;12.82;4.10;;;;;;;3.85;100.00;99444.09;5061990;28;20459;-74
2024/02/24 06:25:14;;;;;;;14.60;4.20;;;;;;;3.84;100.00;99445.84;5064014;28;20021;-73
2024/02/24 06:27:39;;;;;;;13.70;4.40;;;;;;;3.86;100.00;99443.25;5062258;28;20388;-72
2024/02/24 06:30:06;;;;;;;13.00;4.15;;;;;;;3.87;100.00;99450.19;5065027;28;20107;-72
2024/02/24 06:32:31;;;;;;;12.95;4.10;;;;;;;3.92;100.00;99445.03;5057407;28;20527;-72
2024/02/24 06:34:56;;;;;;;14.00;4.28;;;;;;;3.90;100.00;99441.53;5064613;28;20025;-72
2024/02/24 06:37:22;;;;;;;12.30;4.03;;;;;;;3.88;100.00;99448.47;5044560;28;20024;-73
2024/02/24 06:39:47;;;;;;;13.25;4.28;;;;;;;3.88;100.00;99448.47;5061637;28;20118;-73
2024/02/24 06:42:13;;;;;;;13.43;4.00;;;;;;;3.88;100.00;99458.94;5064157;28;20379;-73
2024/02/24 06:44:39;;;;;;;11.85;4.20;;;;;;;3.83;100.00;99456.28;5061601;28;20448;-73
2024/02/24 06:47:04;;;;;;;11.25;3.92;;;;;;;3.83;100.00;99453.69;5064844;28;20094;-72
2024/02/24 06:49:30;;;;;;;12.80;4.03;;;;;;;3.84;100.00;99458.91;5061447;28;20464;-72
2024/02/24 06:51:55;;;;;;;14.98;4.00;;;;;;;3.90;100.00;99467.66;5063730;28;20037;-73
2024/02/24 06:54:21;;;;;;;11.95;4.10;;;;;;;3.92;100.00;99471.19;5062510;28;20032;-72
2024/02/24 06:56:46;;;;;;;12.55;4.10;;;;;;;3.94;100.00;99472.06;5062580;28;20558;-72
2024/02/24 06:59:13;;;;;;;12.85;4.00;;;;;;;3.95;100.00;99473.84;5063517;28;20021;-72
2024/02/24 07:01:38;;;;;;;10.30;3.80;;;;;;;3.95;100.00;99484.28;5060285;28;20379;-72
2024/02/24 07:04:04;;;;;;;12.88;3.90;;;;;;;3.93;100.00;99480.75;5064124;28;20045;-72
2024/02/24 07:06:29;;;;;;;13.50;3.90;;;;;;;3.95;100.00;99481.66;5059779;28;20033;-72
2024/02/24 07:08:54;;;;;;;9.80;3.70;;;;;;;3.95;100.00;99479.94;5063856;28;20033;-72
2024/02/24 07:11:20;;;;;;;12.82;4.00;;;;;;;3.93;100.00;99491.22;5062204;28;20040;-72
2024/02/24 07:13:45;;;;;;;10.65;3.90;;;;;;;3.88;100.00;99488.56;5062059;28;20029;-72
2024/02/24 07:16:11;;;;;;;13.15;4.20;;;;;;;3.91;100.00;99492.97;5063717;28;20150;-72
2024/02/24 07:18:37;;;;;;;12.23;4.20;;;;;;;3.90;100.00;99494.69;5060912;28;20104;-73
2024/02/24 07:21:03;;;;;;;14.68;4.15;;;;;;;3.90;100.00;99493.81;5064232;28;20063;-72
2024/02/24 07:23:28;;;;;;;14.13;4.30;;;;;;;3.91;100.00;99492.97;5061205;28;20446;-87
2024/02/24 07:25:54;;;;;;;12.07;4.03;;;;;;;3.89;100.00;99498.19;5062941;28;20112;-74
2024/02/24 07:28:19;;;;;;;15.25;4.30;;;;;;;3.90;100.00;99496.44;5062501;28;20036;-83
2024/02/24 07:30:45;;;;;;;12.95;4.05;;;;;;;3.95;100.00;99497.38;5061942;28;20057;-80
2024/02/24 07:33:11;;;;;;;13.48;4.18;;;;;;;3.99;100.00;99504.34;5063439;28;20029;-82
2024/02/24 07:35:37;;;;;;;13.63;4.00;;;;;;;4.03;100.00;99513.97;5060836;28;20521;-86
2024/02/24 07:38:02;;;;;;;12.93;4.00;;;;;;;4.11;100.00;99524.53;5064232;28;20072;-72
2024/02/24 07:40:28;;;;;;;12.77;4.00;;;;;;;4.15;100.00;99516.72;5061195;28;20117;-72
2024/02/24 07:42:56;;;;;;;12.18;4.00;;;;;;;4.25;100.00;99522.03;5062115;28;20150;-74
2024/02/24 07:45:30;;;;;;;12.07;3.88;;;;;;;4.30;100.00;99531.69;5062011;28;20447;-72
2024/02/24 07:47:56;;;;;;;10.75;3.70;;;;;;;4.41;100.00;99539.63;5063171;28;20029;-72
2024/02/24 07:50:22;;;;;;;12.75;4.00;;;;;;;4.42;100.00;99541.38;5061833;28;20021;-76
2024/02/24 07:52:47;;;;;;;10.55;3.60;;;;;;;4.27;100.00;99536.88;5044389;28;20071;-88
2024/02/24 07:55:13;;;;;;;12.35;3.60;;;;;;;4.03;100.00;99574.13;5062781;28;20398;-87
2024/02/24 07:57:39;;;;;;;8.57;3.33;;;;;;;3.63;100.00;99579.78;5059783;28;20451;-89
2024/02/24 08:00:05;;;;;;;12.27;3.97;;;;;;;3.33;100.00;99579.41;5063702;28;20032;-87
2024/02/24 08:02:31;;;;;;;14.88;4.88;;;;;;;3.10;100.00;99580.84;5059032;28;20025;-83
2024/02/24 08:04:56;;;;;;;16.60;5.20;;;;;;;3.02;100.00;99578.97;5063723;28;20361;-72
2024/02/24 08:07:22;;;;;;;17.30;5.65;;;;;;;2.99;100.00;99587.63;5061380;28;20035;-73
2024/02/24 08:09:47;;;;;;;17.20;5.72;;;;;;;2.91;100.00;99589.25;5061737;28;20033;-72
2024/02/24 08:12:13;;;;;;;16.58;5.60;;;;;;;2.93;100.00;99592.78;5063232;28;20025;-72
2024/02/24 08:14:38;;;;;;;17.42;6.22;;;;;;;2.87;100.00;99601.38;5060588;28;20163;-72
2024/02/24 08:17:03;;;;;;;19.48;6.60;;;;;;;2.89;100.00;99598.78;5062469;28;20165;-72
2024/02/24 08:19:33;;;;;;;16.92;6.20;;;;;;;2.93;100.00;99611.03;5060675;28;20383;-73
2024/02/24 08:21:59;;;;;;;17.73;6.45;;;;;;;2.96;100.00;99600.66;5061920;28;20055;-73
2024/02/24 08:24:24;;;;;;;18.88;6.93;;;;;;;2.99;100.00;99611.13;5060847;28;20471;-72
2024/02/24 08:26:49;;;;;;;18.42;6.90;;;;;;;3.01;100.00;99613.75;5063723;28;20037;-72
2024/02/24 08:29:15;;;;;;;19.08;7.03;;;;;;;3.06;100.00;99619.91;5066164;28;20020;-72
2024/02/24 08:31:42;;;;;;;19.80;7.72;;;;;;;3.03;100.00;99620.78;5064349;28;20078;-71
2024/02/24 08:34:08;;;;;;;19.13;7.55;;;;;;;3.06;100.00;99622.53;5066009;28;20395;-73
2024/02/24 08:36:33;;;;;;;20.27;7.82;;;;;;;3.03;100.00;99628.59;5063687;28;20029;-72
2024/02/24 08:38:59;;;;;;;20.17;8.02;;;;;;;3.05;100.00;99633.84;5048533;28;20044;-71
2024/02/24 08:41:26;;;;;;;19.98;7.88;;;;;;;3.00;100.00;99632.88;5064590;28;20036;-87
2024/02/24 08:43:51;;;;;;;19.73;8.00;;;;;;;3.00;100.00;99639.00;5065727;28;20029;-87
2024/02/24 08:46:18;;;;;;;19.77;7.82;;;;;;;3.02;100.00;99636.41;5065459;28;20387;-87
2024/02/24 08:48:44;;;;;;;21.13;8.55;;;;;;;3.07;100.00;99647.78;5064716;28;20037;-88
2024/02/24 08:51:09;;;;;;;20.55;8.25;;;;;;;3.08;100.00;99653.03;5066603;28;20025;-88
2024/02/24 08:53:34;;;;;;;20.70;8.57;;;;;;;3.08;100.00;99654.78;5062442;28;20068;-88
2024/02/24 08:56:01;;;;;;;21.10;8.50;;;;;;;3.07;100.00;99659.16;5066300;28;20025;-89
2024/02/24 08:58:29;;;;;;;20.50;8.55;;;;;;;3.06;100.00;99664.31;5064239;28;20032;-87
2024/02/24 09:00:56;;;;;;;22.35;9.75;;;;;;;3.10;100.00;99659.19;5065935;28;20033;-88
2024/02/24 09:03:22;;;;;;;22.15;9.55;;;;;;;3.10;100.00;99664.41;5064799;28;20128;-88
2024/02/24 09:05:47;;;;;;;21.10;9.38;;;;;;;3.17;100.00;99661.88;5064619;28;20120;-85
2024/02/24 09:08:13;;;;;;;21.45;9.10;;;;;;;3.20;100.00;99664.53;5065686;28;20024;-76
2024/02/24 09:10:38;;;;;;;22.58;9.60;;;;;;;3.20;100.00;99669.75;5063204;28;20471;-71
2024/02/24 09:13:04;;;;;;;20.60;9.00;;;;;;;3.22;100.00;99675.88;5066526;28;20028;-73
2024/02/24 09:15:29;;;;;;;22.50;10.10;;;;;;;3.22;100.00;99679.38;5062293;28;20078;-75
2024/02/24 09:17:55;;;;;;;21.75;9.60;;;;;;;3.21;100.00;99679.38;5065318;28;20049;-72
2024/02/24 09:20:21;;;;;;;21.25;9.65;;;;;;;3.23;100.00;99672.41;5064700;28;20035;-72
2024/02/24 09:22:47;;;;;;;22.08;9.93;;;;;;;3.26;100.00;99680.31;5064321;28;20025;-72
2024/02/24 09:25:16;;;;;;;22.33;10.13;;;;;;;3.32;100.00;99690.88;5065489;28;20135;-72
2024/02/24 09:27:42;;;;;;;21.60;9.85;;;;;;;3.33;100.00;99692.59;5063123;28;20033;-72
2024/02/24 09:30:12;;;;;;;20.80;9.25;;;;;;;3.31;100.00;99695.19;5066335;28;20047;-72
2024/02/24 09:32:39;;;;;;;21.35;9.35;;;;;;;3.33;100.00;99700.44;5062632;28;20088;-72
2024/02/24 09:35:05;;;;;;;21.30;9.32;;;;;;;3.41;100.00;99697.97;5059796;28;20107;-73
2024/02/24 09:37:32;;;;;;;21.13;9.07;;;;;;;3.38;100.00;99701.41;5061772;28;20028;-72
2024/02/24 09:39:58;;;;;;;21.52;9.13;;;;;;;3.41;100.00;99701.44;5065255;28;20028;-72
2024/02/24 09:42:27;;;;;;;21.65;9.43;;;;;;;3.43;100.00;99701.47;5064524;28;20025;-72
2024/02/24 09:44:58;;;;;;;20.58;9.02;;;;;;;3.42;100.00;99710.16;5063689;28;20036;-71
2024/02/24 09:47:23;;;;;;;20.15;8.77;;;;;;;3.43;100.00;99709.31;5064948;28;20029;-72
2024/02/24 09:49:48;;;;;;;20.05;8.35;;;;;;;3.46;100.00;99712.81;5062896;28;20384;-72
2024/02/24 09:52:14;;;;;;;21.00;8.45;;;;;;;3.46;100.00;99722.41;5065932;28;20048;-72
2024/02/24 09:54:40;;;;;;;20.58;8.35;;;;;;;3.47;100.00;99729.41;5062396;28;20029;-72
2024/02/24 09:57:07;;;;;;;20.20;8.77;;;;;;;3.57;100.00;99715.63;5064939;28;20040;-72
2024/02/24 09:59:34;;;;;;;20.17;8.35;;;;;;;3.59;100.00;99715.63;5062007;28;20075;-72
2024/02/24 10:01:59;;;;;;;20.27;8.38;;;;;;;3.61;100.00;99729.59;5064232;28;20029;-71
2024/02/24 10:04:26;;;;;;;19.90;7.80;;;;;;;3.65;100.00;99721.81;5063827;28;20151;-71
2024/02/24 10:06:54;;;;;;;19.60;6.95;;;;;;;3.77;100.00;99723.75;5061938;28;20115;-75
2024/02/24 10:09:20;;;;;;;19.67;7.30;;;;;;;3.88;100.00;99736.09;5064616;28;20056;-88
2024/02/24 10:11:45;;;;;;;19.17;6.63;;;;;;;4.13;100.00;99732.94;5062275;28;20025;-88
2024/02/24 10:14:11;;;;;;;17.60;6.30;;;;;;;4.53;100.00;99728.19;5065643;28;20363;-89
2024/02/24 10:16:37;;;;;;;17.42;6.10;;;;;;;4.95;100.00;99741.72;5062579;28;20033;-89
2024/02/24 10:19:04;;;;;;;18.35;6.22;;;;;;;5.05;100.00;99737.41;5066088;28;20426;-87
2024/02/24 10:21:29;;;;;;;16.20;5.20;;;;;;;4.93;100.00;99742.56;5068374;28;20073;-87
2024/02/24 10:23:55;;;;;;;16.50;5.40;;;;;;;4.97;100.00;99737.34;5070031;28;20029;-89
2024/02/24 10:26:21;;;;;;;13.73;4.30;;;;;;;4.96;100.00;99739.97;5071714;28;20037;-85
2024/02/24 10:28:47;;;;;;;15.63;4.20;;;;;;;4.93;100.00;99740.81;5066182;28;20426;-87
2024/02/24 10:31:13;;;;;;;14.88;4.15;;;;;;;4.92;100.00;99735.56;5072449;28;20025;-88
2024/02/24 10:33:39;;;;;;;13.93;3.88;;;;;;;4.91;100.00;99725.94;5068295;28;20028;-89
2024/02/24 10:36:07;;;;;;;11.55;3.63;;;;;;;5.01;100.00;99725.16;5065419;28;20111;-89
2024/02/24 10:38:37;;;;;;;12.55;3.70;;;;;;;5.58;100.00;99726.50;5062499;28;20028;-74
2024/02/24 10:41:03;;;;;;;10.48;3.08;;;;;;;5.97;100.00;99732.03;5063863;28;20032;-87
2024/02/24 10:43:28;;;;;;;9.38;3.00;;;;;;;6.30;100.00;99729.53;5063257;28;20032;-73
2024/02/24 10:45:54;;;;;;;11.00;2.90;;;;;;;6.79;100.00;99740.19;5062854;28;20424;-73
2024/02/24 10:48:20;;;;;;;7.70;2.55;;;;;;;6.17;100.00;99739.09;5063976;28;20035;-74
2024/02/24 10:50:46;;;;;;;10.82;2.90;;;;;;;5.79;100.00;99739.75;5061678;28;20044;-72
2024/02/24 10:53:16;;;;;;;11.05;3.00;;;;;;;5.62;100.00;99729.13;5064741;28;20391;-80
2024/02/24 10:55:42;;;;;;;10.25;2.90;;;;;;;5.57;100.00;99744.84;5057134;28;20021;-83
2024/02/24 10:58:09;;;;;;;9.65;2.80;;;;;;;5.53;100.00;99733.47;5064475;28;20040;-88
2024/02/24 11:00:35;;;;;;;11.45;3.08;;;;;;;5.31;100.00;99739.41;5061625;28;20986;-90
2024/02/24 11:03:04;;;;;;;12.38;3.22;;;;;;;5.22;100.00;99746.31;5063343;28;20049;-79
2024/02/24 11:05:29;;;;;;;12.88;3.40;;;;;;;5.13;100.00;99743.63;5062623;28;20021;-88
2024/02/24 11:07:55;;;;;;;9.77;3.20;;;;;;;5.10;100.00;99738.34;5062152;28;20037;-87
2024/02/24 11:10:21;;;;;;;9.80;3.15;;;;;;;5.10;100.00;99756.69;5063866;28;20167;-86
2024/02/24 11:12:50;;;;;;;12.75;3.63;;;;;;;5.56;100.00;99748.31;5061527;28;20052;-89
2024/02/24 11:15:18;;;;;;;10.18;3.20;;;;;;;5.88;100.00;99756.44;5064186;28;20029;-87
2024/02/24 11:17:48;;;;;;;12.10;3.22;;;;;;;5.64;100.00;99764.13;5060949;28;20033;-85
2024/02/24 11:20:38;;;;;;;12.45;3.30;;;;;;;5.60;100.00;99757.97;5057473;28;20357;-88